sensor_id;sensor_type;location;lat;lon;timestamp;temperature;humidity
13245;DHT22;6689;53.400;12.486;2022-11-06T00:00:32;7.50;99.90
13245;DHT22;6689;53.400;12.486;2022-11-06T00:03:00;7.50;99.90
13245;DHT22;6689;53.400;12.486;2022-11-06T00:05:28;7.50;99.90
13245;DHT22;6689;53.400;12.486;2022-11-06T00:08:13;7.50;99.90
13245;DHT22;6689;53.400;12.486;2022-11-06T00:10:40;7.40;99.90
13245;DHT22;6689;53.400;12.486;2022-11-06T00:13:07;7.40;99.90
13245;DHT22;6689;53.400;12.486;2022-11-06T00:15:34;7.40;99.90
13245;DHT22;6689;53.400;12.486;2022-11-06T00:18:01;7.40;99.90
13245;DHT22;6689;53.400;12.486;2022-11-06T00:20:30;7.40;99.90
13245;DHT22;6689;53.400;12.486;2022-11-06T00:22:56;7.40;99.90
13245;DHT22;6689;53.400;12.486;2022-11-06T00:25:23;7.40;99.90
13245;DHT22;6689;53.400;12.486;2022-11-06T00:27:50;7.40;99.90
13245;DHT22;6689;53.400;12.486;2022-11-06T00:30:17;7.30;99.90
13245;DHT22;6689;53.400;12.486;2022-11-06T00:32:45;7.40;99.90
13245;DHT22;6689;53.400;12.486;2022-11-06T00:35:12;7.40;99.90
13245;DHT22;6689;53.400;12.486;2022-11-06T00:37:42;7.40;99.90
13245;DHT22;6689;53.400;12.486;2022-11-06T00:40:09;7.30;99.90
13245;DHT22;6689;53.400;12.486;2022-11-06T00:42:38;7.30;99.90
13245;DHT22;6689;53.400;12.486;2022-11-06T00:45:05;7.30;99.90
13245;DHT22;6689;53.400;12.486;2022-11-06T00:47:32;7.30;99.90
13245;DHT22;6689;53.400;12.486;2022-11-06T00:49:59;7.30;99.90
13245;DHT22;6689;53.400;12.486;2022-11-06T00:52:28;7.30;99.90
13245;DHT22;6689;53.400;12.486;2022-11-06T00:54:56;7.30;99.90
13245;DHT22;6689;53.400;12.486;2022-11-06T00:57:23;7.30;99.90
13245;DHT22;6689;53.400;12.486;2022-11-06T00:59:50;7.30;99.90
13245;DHT22;6689;53.400;12.486;2022-11-06T01:02:17;7.30;99.90
13245;DHT22;6689;53.400;12.486;2022-11-06T01:04:45;7.30;99.90
13245;DHT22;6689;53.400;12.486;2022-11-06T01:07:12;7.30;99.90
13245;DHT22;6689;53.400;12.486;2022-11-06T01:09:39;7.20;99.90
13245;DHT22;6689;53.400;12.486;2022-11-06T01:12:08;7.20;99.90
13245;DHT22;6689;53.400;12.486;2022-11-06T01:14:35;7.20;99.90
13245;DHT22;6689;53.400;12.486;2022-11-06T01:17:02;7.20;99.90
13245;DHT22;6689;53.400;12.486;2022-11-06T01:19:28;7.10;99.90
13245;DHT22;6689;53.400;12.486;2022-11-06T01:21:55;7.10;99.90
13245;DHT22;6689;53.400;12.486;2022-11-06T01:24:23;7.10;99.90
13245;DHT22;6689;53.400;12.486;2022-11-06T01:26:50;7.10;99.90
13245;DHT22;6689;53.400;12.486;2022-11-06T01:29:19;7.10;99.90
13245;DHT22;6689;53.400;12.486;2022-11-06T01:31:46;7.00;99.90
13245;DHT22;6689;53.400;12.486;2022-11-06T01:34:15;7.00;99.90
13245;DHT22;6689;53.400;12.486;2022-11-06T01:36:42;7.00;99.90
13245;DHT22;6689;53.400;12.486;2022-11-06T01:39:11;7.00;99.90
13245;DHT22;6689;53.400;12.486;2022-11-06T01:41:39;6.90;99.90
13245;DHT22;6689;53.400;12.486;2022-11-06T01:46:50;6.90;99.90
13245;DHT22;6689;53.400;12.486;2022-11-06T01:49:16;6.90;99.90
13245;DHT22;6689;53.400;12.486;2022-11-06T01:51:44;6.90;99.90
13245;DHT22;6689;53.400;12.486;2022-11-06T01:54:12;6.90;99.90
13245;DHT22;6689;53.400;12.486;2022-11-06T01:56:40;6.90;99.90
13245;DHT22;6689;53.400;12.486;2022-11-06T01:59:08;6.80;99.90
13245;DHT22;6689;53.400;12.486;2022-11-06T02:01:35;6.90;99.90
13245;DHT22;6689;53.400;12.486;2022-11-06T02:04:08;6.80;99.90
13245;DHT22;6689;53.400;12.486;2022-11-06T02:06:36;6.80;99.90
13245;DHT22;6689;53.400;12.486;2022-11-06T02:09:04;6.80;99.90
13245;DHT22;6689;53.400;12.486;2022-11-06T02:11:35;6.80;99.90
13245;DHT22;6689;53.400;12.486;2022-11-06T02:14:05;6.80;99.90
13245;DHT22;6689;53.400;12.486;2022-11-06T02:16:38;6.80;99.90
13245;DHT22;6689;53.400;12.486;2022-11-06T02:19:13;6.80;99.90
13245;DHT22;6689;53.400;12.486;2022-11-06T02:24:48;6.80;99.90
13245;DHT22;6689;53.400;12.486;2022-11-06T02:27:18;6.70;99.90
13245;DHT22;6689;53.400;12.486;2022-11-06T02:29:48;6.70;99.90
13245;DHT22;6689;53.400;12.486;2022-11-06T02:32:17;6.70;99.90
13245;DHT22;6689;53.400;12.486;2022-11-06T02:34:47;6.70;99.90
13245;DHT22;6689;53.400;12.486;2022-11-06T02:37:17;6.70;99.90
13245;DHT22;6689;53.400;12.486;2022-11-06T02:39:45;6.70;99.90
13245;DHT22;6689;53.400;12.486;2022-11-06T02:42:14;6.70;99.90
13245;DHT22;6689;53.400;12.486;2022-11-06T02:44:43;6.60;99.90
13245;DHT22;6689;53.400;12.486;2022-11-06T02:47:12;6.60;1.00
13245;DHT22;6689;53.400;12.486;2022-11-06T02:49:41;6.60;1.40
13245;DHT22;6689;53.400;12.486;2022-11-06T02:52:10;6.60;99.90
13245;DHT22;6689;53.400;12.486;2022-11-06T02:54:40;6.60;1.00
13245;DHT22;6689;53.400;12.486;2022-11-06T02:57:09;6.60;1.00
13245;DHT22;6689;53.400;12.486;2022-11-06T02:59:39;6.60;1.00
13245;DHT22;6689;53.400;12.486;2022-11-06T03:02:11;6.60;1.00
13245;DHT22;6689;53.400;12.486;2022-11-06T03:04:46;6.60;1.00
13245;DHT22;6689;53.400;12.486;2022-11-06T03:07:16;6.60;1.00
13245;DHT22;6689;53.400;12.486;2022-11-06T03:09:45;6.60;1.00
13245;DHT22;6689;53.400;12.486;2022-11-06T03:12:19;6.60;1.00
13245;DHT22;6689;53.400;12.486;2022-11-06T03:14:49;6.70;1.00
13245;DHT22;6689;53.400;12.486;2022-11-06T03:17:20;6.70;1.00
13245;DHT22;6689;53.400;12.486;2022-11-06T03:19:49;6.90;1.00
13245;DHT22;6689;53.400;12.486;2022-11-06T03:22:19;6.60;1.00
13245;DHT22;6689;53.400;12.486;2022-11-06T03:24:52;6.70;1.00
13245;DHT22;6689;53.400;12.486;2022-11-06T03:27:21;6.60;1.00
13245;DHT22;6689;53.400;12.486;2022-11-06T03:29:48;6.60;1.00
13245;DHT22;6689;53.400;12.486;2022-11-06T03:32:16;6.60;1.00
13245;DHT22;6689;53.400;12.486;2022-11-06T03:34:47;6.60;1.00
13245;DHT22;6689;53.400;12.486;2022-11-06T03:37:17;6.60;1.00
13245;DHT22;6689;53.400;12.486;2022-11-06T03:39:46;6.60;1.00
13245;DHT22;6689;53.400;12.486;2022-11-06T03:42:14;6.60;1.00
13245;DHT22;6689;53.400;12.486;2022-11-06T03:44:42;6.60;1.00
13245;DHT22;6689;53.400;12.486;2022-11-06T03:47:13;6.60;1.00
13245;DHT22;6689;53.400;12.486;2022-11-06T03:49:40;6.60;1.00
13245;DHT22;6689;53.400;12.486;2022-11-06T03:52:12;6.60;1.00
13245;DHT22;6689;53.400;12.486;2022-11-06T03:54:41;6.60;1.00
13245;DHT22;6689;53.400;12.486;2022-11-06T03:57:09;6.60;1.00
13245;DHT22;6689;53.400;12.486;2022-11-06T03:59:38;6.70;1.00
13245;DHT22;6689;53.400;12.486;2022-11-06T04:02:06;6.70;1.00
13245;DHT22;6689;53.400;12.486;2022-11-06T04:04:34;6.70;1.00
13245;DHT22;6689;53.400;12.486;2022-11-06T04:07:03;6.70;1.00
13245;DHT22;6689;53.400;12.486;2022-11-06T04:09:33;6.70;1.00
13245;DHT22;6689;53.400;12.486;2022-11-06T04:12:19;6.80;1.00
13245;DHT22;6689;53.400;12.486;2022-11-06T04:15:04;6.70;1.00
13245;DHT22;6689;53.400;12.486;2022-11-06T04:17:32;6.80;1.00
13245;DHT22;6689;53.400;12.486;2022-11-06T04:20:00;6.70;1.00
13245;DHT22;6689;53.400;12.486;2022-11-06T04:22:31;6.70;1.00
13245;DHT22;6689;53.400;12.486;2022-11-06T04:25:05;6.70;1.00
13245;DHT22;6689;53.400;12.486;2022-11-06T04:28:01;6.70;1.00
13245;DHT22;6689;53.400;12.486;2022-11-06T04:30:29;6.70;1.00
13245;DHT22;6689;53.400;12.486;2022-11-06T04:33:01;6.70;1.00
13245;DHT22;6689;53.400;12.486;2022-11-06T04:35:35;6.60;1.00
13245;DHT22;6689;53.400;12.486;2022-11-06T04:38:04;6.70;1.00
13245;DHT22;6689;53.400;12.486;2022-11-06T04:40:36;6.60;1.00
13245;DHT22;6689;53.400;12.486;2022-11-06T04:43:05;6.60;1.00
13245;DHT22;6689;53.400;12.486;2022-11-06T04:45:34;6.60;1.00
13245;DHT22;6689;53.400;12.486;2022-11-06T04:48:02;6.60;1.00
13245;DHT22;6689;53.400;12.486;2022-11-06T04:50:32;6.60;1.00
13245;DHT22;6689;53.400;12.486;2022-11-06T04:53:01;6.50;1.00
13245;DHT22;6689;53.400;12.486;2022-11-06T04:55:29;6.50;1.00
13245;DHT22;6689;53.400;12.486;2022-11-06T04:57:57;6.60;1.00
13245;DHT22;6689;53.400;12.486;2022-11-06T05:00:24;6.60;1.00
13245;DHT22;6689;53.400;12.486;2022-11-06T05:02:51;6.60;1.00
13245;DHT22;6689;53.400;12.486;2022-11-06T05:05:18;6.60;1.00
13245;DHT22;6689;53.400;12.486;2022-11-06T05:07:45;6.50;1.00
13245;DHT22;6689;53.400;12.486;2022-11-06T05:10:12;6.50;1.00
13245;DHT22;6689;53.400;12.486;2022-11-06T05:12:39;6.50;1.00
13245;DHT22;6689;53.400;12.486;2022-11-06T05:15:08;6.50;1.00
13245;DHT22;6689;53.400;12.486;2022-11-06T05:17:35;6.50;1.00
13245;DHT22;6689;53.400;12.486;2022-11-06T05:20:02;6.40;1.00
13245;DHT22;6689;53.400;12.486;2022-11-06T05:22:29;6.50;1.00
13245;DHT22;6689;53.400;12.486;2022-11-06T05:25:13;6.40;1.00
13245;DHT22;6689;53.400;12.486;2022-11-06T05:27:40;6.40;1.00
13245;DHT22;6689;53.400;12.486;2022-11-06T05:30:09;6.40;1.00
13245;DHT22;6689;53.400;12.486;2022-11-06T05:32:36;6.40;1.00
13245;DHT22;6689;53.400;12.486;2022-11-06T05:35:03;6.40;1.00
13245;DHT22;6689;53.400;12.486;2022-11-06T05:37:31;6.40;1.00
13245;DHT22;6689;53.400;12.486;2022-11-06T05:39:58;6.40;1.00
13245;DHT22;6689;53.400;12.486;2022-11-06T05:42:25;6.40;1.00
13245;DHT22;6689;53.400;12.486;2022-11-06T05:44:52;6.40;1.00
13245;DHT22;6689;53.400;12.486;2022-11-06T05:47:20;6.30;1.00
13245;DHT22;6689;53.400;12.486;2022-11-06T05:49:47;6.30;1.00
13245;DHT22;6689;53.400;12.486;2022-11-06T05:52:14;6.30;1.00
13245;DHT22;6689;53.400;12.486;2022-11-06T05:54:41;6.30;1.00
13245;DHT22;6689;53.400;12.486;2022-11-06T05:57:08;6.30;1.00
13245;DHT22;6689;53.400;12.486;2022-11-06T05:59:35;6.30;1.00
13245;DHT22;6689;53.400;12.486;2022-11-06T06:02:02;6.30;1.00
13245;DHT22;6689;53.400;12.486;2022-11-06T06:04:30;6.30;1.00
13245;DHT22;6689;53.400;12.486;2022-11-06T06:06:57;6.30;1.00
13245;DHT22;6689;53.400;12.486;2022-11-06T06:09:24;6.20;1.00
13245;DHT22;6689;53.400;12.486;2022-11-06T06:11:51;6.20;1.00
13245;DHT22;6689;53.400;12.486;2022-11-06T06:14:18;6.30;1.00
13245;DHT22;6689;53.400;12.486;2022-11-06T06:16:45;6.20;1.00
13245;DHT22;6689;53.400;12.486;2022-11-06T06:19:12;6.20;1.00
13245;DHT22;6689;53.400;12.486;2022-11-06T06:21:40;6.20;1.00
13245;DHT22;6689;53.400;12.486;2022-11-06T06:24:07;6.20;1.00
13245;DHT22;6689;53.400;12.486;2022-11-06T06:26:34;6.20;1.00
13245;DHT22;6689;53.400;12.486;2022-11-06T06:29:01;6.20;1.00
13245;DHT22;6689;53.400;12.486;2022-11-06T06:31:28;6.20;1.00
13245;DHT22;6689;53.400;12.486;2022-11-06T06:33:55;6.20;1.00
13245;DHT22;6689;53.400;12.486;2022-11-06T06:36:23;6.20;1.00
13245;DHT22;6689;53.400;12.486;2022-11-06T06:38:51;6.20;1.00
13245;DHT22;6689;53.400;12.486;2022-11-06T06:41:18;6.20;1.00
13245;DHT22;6689;53.400;12.486;2022-11-06T06:43:46;6.20;1.00
13245;DHT22;6689;53.400;12.486;2022-11-06T06:46:13;6.40;1.00
13245;DHT22;6689;53.400;12.486;2022-11-06T06:48:40;6.20;1.00
13245;DHT22;6689;53.400;12.486;2022-11-06T06:51:07;6.20;1.00
13245;DHT22;6689;53.400;12.486;2022-11-06T06:53:34;6.20;1.00
13245;DHT22;6689;53.400;12.486;2022-11-06T06:56:03;6.20;1.00
13245;DHT22;6689;53.400;12.486;2022-11-06T06:58:30;6.30;1.00
13245;DHT22;6689;53.400;12.486;2022-11-06T07:00:58;6.30;1.00
13245;DHT22;6689;53.400;12.486;2022-11-06T07:03:24;6.30;1.00
13245;DHT22;6689;53.400;12.486;2022-11-06T07:05:52;6.30;1.00
13245;DHT22;6689;53.400;12.486;2022-11-06T07:08:19;6.40;1.00
13245;DHT22;6689;53.400;12.486;2022-11-06T07:10:46;6.40;1.00
13245;DHT22;6689;53.400;12.486;2022-11-06T07:13:15;6.40;1.00
13245;DHT22;6689;53.400;12.486;2022-11-06T07:15:42;6.50;1.00
13245;DHT22;6689;53.400;12.486;2022-11-06T07:18:08;6.50;1.00
13245;DHT22;6689;53.400;12.486;2022-11-06T07:20:35;6.50;1.00
13245;DHT22;6689;53.400;12.486;2022-11-06T07:23:04;6.60;1.00
13245;DHT22;6689;53.400;12.486;2022-11-06T07:25:31;6.60;1.00
13245;DHT22;6689;53.400;12.486;2022-11-06T07:27:59;6.70;1.00
13245;DHT22;6689;53.400;12.486;2022-11-06T07:30:27;6.70;1.00
13245;DHT22;6689;53.400;12.486;2022-11-06T07:32:54;6.90;1.00
13245;DHT22;6689;53.400;12.486;2022-11-06T07:35:21;7.00;1.00
13245;DHT22;6689;53.400;12.486;2022-11-06T07:37:48;7.10;1.00
13245;DHT22;6689;53.400;12.486;2022-11-06T07:40:15;7.20;1.00
13245;DHT22;6689;53.400;12.486;2022-11-06T07:42:42;7.30;1.00
13245;DHT22;6689;53.400;12.486;2022-11-06T07:45:09;7.30;1.00
13245;DHT22;6689;53.400;12.486;2022-11-06T07:47:38;7.40;1.00
13245;DHT22;6689;53.400;12.486;2022-11-06T07:50:05;7.40;1.00
13245;DHT22;6689;53.400;12.486;2022-11-06T07:52:32;7.40;1.00
13245;DHT22;6689;53.400;12.486;2022-11-06T07:54:59;7.40;1.00
13245;DHT22;6689;53.400;12.486;2022-11-06T07:57:26;7.50;1.00
13245;DHT22;6689;53.400;12.486;2022-11-06T07:59:53;7.60;1.00
13245;DHT22;6689;53.400;12.486;2022-11-06T08:02:20;7.60;1.00
13245;DHT22;6689;53.400;12.486;2022-11-06T08:04:48;7.60;1.00
13245;DHT22;6689;53.400;12.486;2022-11-06T08:07:15;7.80;1.00
13245;DHT22;6689;53.400;12.486;2022-11-06T08:09:42;8.00;1.00
13245;DHT22;6689;53.400;12.486;2022-11-06T08:12:09;8.10;1.00
13245;DHT22;6689;53.400;12.486;2022-11-06T08:14:38;8.00;1.00
13245;DHT22;6689;53.400;12.486;2022-11-06T08:17:06;8.10;1.00
13245;DHT22;6689;53.400;12.486;2022-11-06T08:19:33;8.00;1.00
13245;DHT22;6689;53.400;12.486;2022-11-06T08:22:01;8.00;1.00
13245;DHT22;6689;53.400;12.486;2022-11-06T08:24:28;8.10;1.00
13245;DHT22;6689;53.400;12.486;2022-11-06T08:26:55;8.10;1.00
13245;DHT22;6689;53.400;12.486;2022-11-06T08:29:22;8.20;1.00
13245;DHT22;6689;53.400;12.486;2022-11-06T08:31:49;8.20;1.00
13245;DHT22;6689;53.400;12.486;2022-11-06T08:34:16;8.40;1.00
13245;DHT22;6689;53.400;12.486;2022-11-06T08:36:43;8.60;1.00
13245;DHT22;6689;53.400;12.486;2022-11-06T08:39:12;8.70;1.00
13245;DHT22;6689;53.400;12.486;2022-11-06T08:41:40;8.70;1.00
13245;DHT22;6689;53.400;12.486;2022-11-06T08:44:07;8.80;1.00
13245;DHT22;6689;53.400;12.486;2022-11-06T08:46:34;8.90;1.00
13245;DHT22;6689;53.400;12.486;2022-11-06T08:49:01;8.90;99.90
13245;DHT22;6689;53.400;12.486;2022-11-06T08:51:27;8.90;99.90
13245;DHT22;6689;53.400;12.486;2022-11-06T08:53:54;9.00;99.90
13245;DHT22;6689;53.400;12.486;2022-11-06T08:56:23;8.90;99.90
13245;DHT22;6689;53.400;12.486;2022-11-06T08:58:50;8.90;99.90
13245;DHT22;6689;53.400;12.486;2022-11-06T09:01:17;8.90;99.90
13245;DHT22;6689;53.400;12.486;2022-11-06T09:03:44;8.80;99.90
13245;DHT22;6689;53.400;12.486;2022-11-06T09:06:11;8.80;99.90
13245;DHT22;6689;53.400;12.486;2022-11-06T09:08:38;8.80;99.90
13245;DHT22;6689;53.400;12.486;2022-11-06T09:11:05;8.90;99.90
13245;DHT22;6689;53.400;12.486;2022-11-06T09:13:35;8.80;99.90
13245;DHT22;6689;53.400;12.486;2022-11-06T09:16:03;8.80;99.90
13245;DHT22;6689;53.400;12.486;2022-11-06T09:18:30;8.80;1.00
13245;DHT22;6689;53.400;12.486;2022-11-06T09:20:57;8.80;99.90
13245;DHT22;6689;53.400;12.486;2022-11-06T09:23:24;8.80;99.90
13245;DHT22;6689;53.400;12.486;2022-11-06T09:25:51;8.80;1.00
13245;DHT22;6689;53.400;12.486;2022-11-06T09:28:18;8.90;1.00
13245;DHT22;6689;53.400;12.486;2022-11-06T09:30:46;8.80;1.00
13245;DHT22;6689;53.400;12.486;2022-11-06T09:33:13;8.90;1.00
13245;DHT22;6689;53.400;12.486;2022-11-06T09:35:40;8.90;1.00
13245;DHT22;6689;53.400;12.486;2022-11-06T09:38:08;8.90;1.00
13245;DHT22;6689;53.400;12.486;2022-11-06T09:40:36;9.00;1.00
13245;DHT22;6689;53.400;12.486;2022-11-06T09:43:14;9.00;1.40
13245;DHT22;6689;53.400;12.486;2022-11-06T09:45:43;9.10;1.00
13245;DHT22;6689;53.400;12.486;2022-11-06T09:48:15;9.20;1.00
13245;DHT22;6689;53.400;12.486;2022-11-06T09:50:44;9.30;1.00
13245;DHT22;6689;53.400;12.486;2022-11-06T09:53:14;9.30;99.90
13245;DHT22;6689;53.400;12.486;2022-11-06T09:55:43;9.30;99.90
13245;DHT22;6689;53.400;12.486;2022-11-06T09:58:11;9.40;99.90
13245;DHT22;6689;53.400;12.486;2022-11-06T10:00:39;9.50;99.90
13245;DHT22;6689;53.400;12.486;2022-11-06T10:03:10;9.50;99.90
13245;DHT22;6689;53.400;12.486;2022-11-06T10:05:40;9.60;99.90
13245;DHT22;6689;53.400;12.486;2022-11-06T10:08:11;9.60;99.90
13245;DHT22;6689;53.400;12.486;2022-11-06T10:10:42;9.70;99.90
13245;DHT22;6689;53.400;12.486;2022-11-06T10:13:15;9.80;99.90
13245;DHT22;6689;53.400;12.486;2022-11-06T10:15:43;9.80;99.90
13245;DHT22;6689;53.400;12.486;2022-11-06T10:18:11;9.90;99.90
13245;DHT22;6689;53.400;12.486;2022-11-06T10:20:42;10.00;99.90
13245;DHT22;6689;53.400;12.486;2022-11-06T10:23:15;10.10;99.90
13245;DHT22;6689;53.400;12.486;2022-11-06T10:25:44;10.20;99.90
13245;DHT22;6689;53.400;12.486;2022-11-06T10:28:16;10.20;99.90
13245;DHT22;6689;53.400;12.486;2022-11-06T10:30:49;10.20;99.90
13245;DHT22;6689;53.400;12.486;2022-11-06T10:33:20;10.30;99.90
13245;DHT22;6689;53.400;12.486;2022-11-06T10:35:51;10.30;99.90
13245;DHT22;6689;53.400;12.486;2022-11-06T10:38:20;10.30;99.90
13245;DHT22;6689;53.400;12.486;2022-11-06T10:40:49;10.40;99.90
13245;DHT22;6689;53.400;12.486;2022-11-06T10:43:20;10.40;99.90
13245;DHT22;6689;53.400;12.486;2022-11-06T10:45:51;10.50;99.90
13245;DHT22;6689;53.400;12.486;2022-11-06T10:48:21;10.50;99.90
13245;DHT22;6689;53.400;12.486;2022-11-06T10:50:53;10.50;99.90
13245;DHT22;6689;53.400;12.486;2022-11-06T10:53:23;10.50;99.90
13245;DHT22;6689;53.400;12.486;2022-11-06T10:55:55;10.50;99.90
13245;DHT22;6689;53.400;12.486;2022-11-06T10:58:25;10.50;99.90
13245;DHT22;6689;53.400;12.486;2022-11-06T11:00:54;10.50;99.90
13245;DHT22;6689;53.400;12.486;2022-11-06T11:03:23;10.60;99.90
13245;DHT22;6689;53.400;12.486;2022-11-06T11:05:53;10.50;99.90
13245;DHT22;6689;53.400;12.486;2022-11-06T11:08:33;10.60;99.90
13245;DHT22;6689;53.400;12.486;2022-11-06T11:11:01;10.60;99.90
13245;DHT22;6689;53.400;12.486;2022-11-06T11:13:28;10.70;99.90
13245;DHT22;6689;53.400;12.486;2022-11-06T11:15:55;10.70;99.90
13245;DHT22;6689;53.400;12.486;2022-11-06T11:18:23;10.80;99.90
13245;DHT22;6689;53.400;12.486;2022-11-06T11:21:09;10.90;99.90
13245;DHT22;6689;53.400;12.486;2022-11-06T11:23:39;11.20;99.90
13245;DHT22;6689;53.400;12.486;2022-11-06T11:26:17;11.60;99.90
13245;DHT22;6689;53.400;12.486;2022-11-06T11:28:48;11.80;99.90
13245;DHT22;6689;53.400;12.486;2022-11-06T11:31:16;11.90;99.90
13245;DHT22;6689;53.400;12.486;2022-11-06T11:33:47;12.00;99.90
13245;DHT22;6689;53.400;12.486;2022-11-06T11:36:16;12.10;99.90
13245;DHT22;6689;53.400;12.486;2022-11-06T11:38:43;12.20;99.90
13245;DHT22;6689;53.400;12.486;2022-11-06T11:41:11;12.30;99.90
13245;DHT22;6689;53.400;12.486;2022-11-06T11:43:38;12.40;99.90
13245;DHT22;6689;53.400;12.486;2022-11-06T11:46:14;12.40;99.90
13245;DHT22;6689;53.400;12.486;2022-11-06T11:48:43;12.50;99.90
13245;DHT22;6689;53.400;12.486;2022-11-06T11:51:11;12.40;99.90
13245;DHT22;6689;53.400;12.486;2022-11-06T11:53:41;12.40;99.90
13245;DHT22;6689;53.400;12.486;2022-11-06T11:56:12;12.50;99.90
13245;DHT22;6689;53.400;12.486;2022-11-06T11:58:40;12.60;99.90
13245;DHT22;6689;53.400;12.486;2022-11-06T12:01:14;12.60;99.90
13245;DHT22;6689;53.400;12.486;2022-11-06T12:03:42;12.60;99.90
13245;DHT22;6689;53.400;12.486;2022-11-06T12:06:11;12.60;99.90
13245;DHT22;6689;53.400;12.486;2022-11-06T12:08:40;12.50;99.90
13245;DHT22;6689;53.400;12.486;2022-11-06T12:11:12;12.60;99.90
13245;DHT22;6689;53.400;12.486;2022-11-06T12:13:40;12.60;99.90
13245;DHT22;6689;53.400;12.486;2022-11-06T12:16:09;12.70;99.90
13245;DHT22;6689;53.400;12.486;2022-11-06T12:18:39;12.60;99.90
13245;DHT22;6689;53.400;12.486;2022-11-06T12:21:10;12.60;99.90
13245;DHT22;6689;53.400;12.486;2022-11-06T12:23:39;12.50;99.90
13245;DHT22;6689;53.400;12.486;2022-11-06T12:26:10;12.60;99.90
13245;DHT22;6689;53.400;12.486;2022-11-06T12:28:41;12.50;99.90
13245;DHT22;6689;53.400;12.486;2022-11-06T12:31:10;12.60;99.90
13245;DHT22;6689;53.400;12.486;2022-11-06T12:33:40;12.50;99.90
13245;DHT22;6689;53.400;12.486;2022-11-06T12:36:09;12.60;99.90
13245;DHT22;6689;53.400;12.486;2022-11-06T12:38:39;12.50;99.90
13245;DHT22;6689;53.400;12.486;2022-11-06T12:41:09;12.50;99.90
13245;DHT22;6689;53.400;12.486;2022-11-06T12:43:40;12.50;99.90
13245;DHT22;6689;53.400;12.486;2022-11-06T12:46:23;12.60;99.90
13245;DHT22;6689;53.400;12.486;2022-11-06T12:49:01;12.60;99.90
13245;DHT22;6689;53.400;12.486;2022-11-06T12:51:32;12.50;99.90
13245;DHT22;6689;53.400;12.486;2022-11-06T12:54:06;12.60;99.90
13245;DHT22;6689;53.400;12.486;2022-11-06T12:56:39;12.60;99.90
13245;DHT22;6689;53.400;12.486;2022-11-06T12:59:13;12.70;99.90
13245;DHT22;6689;53.400;12.486;2022-11-06T13:01:47;12.60;99.90
13245;DHT22;6689;53.400;12.486;2022-11-06T13:04:33;12.60;99.90
13245;DHT22;6689;53.400;12.486;2022-11-06T13:09:46;12.70;99.90
13245;DHT22;6689;53.400;12.486;2022-11-06T13:12:18;12.70;99.90
13245;DHT22;6689;53.400;12.486;2022-11-06T13:14:51;12.60;99.90
13245;DHT22;6689;53.400;12.486;2022-11-06T13:17:22;12.70;99.90
13245;DHT22;6689;53.400;12.486;2022-11-06T13:19:51;12.70;99.90
13245;DHT22;6689;53.400;12.486;2022-11-06T13:22:23;12.70;99.90
13245;DHT22;6689;53.400;12.486;2022-11-06T13:24:55;12.60;99.90
13245;DHT22;6689;53.400;12.486;2022-11-06T13:27:26;12.50;99.90
13245;DHT22;6689;53.400;12.486;2022-11-06T13:30:00;12.60;99.90
13245;DHT22;6689;53.400;12.486;2022-11-06T13:32:28;12.60;99.90
13245;DHT22;6689;53.400;12.486;2022-11-06T13:34:56;12.60;99.90
13245;DHT22;6689;53.400;12.486;2022-11-06T13:37:30;12.60;99.90
13245;DHT22;6689;53.400;12.486;2022-11-06T13:39:58;12.60;99.90
13245;DHT22;6689;53.400;12.486;2022-11-06T13:42:30;12.60;99.90
13245;DHT22;6689;53.400;12.486;2022-11-06T13:45:01;12.60;99.90
13245;DHT22;6689;53.400;12.486;2022-11-06T13:47:30;12.60;99.90
13245;DHT22;6689;53.400;12.486;2022-11-06T13:50:00;12.70;99.90
13245;DHT22;6689;53.400;12.486;2022-11-06T13:52:33;12.60;99.90
13245;DHT22;6689;53.400;12.486;2022-11-06T13:55:03;12.60;99.90
13245;DHT22;6689;53.400;12.486;2022-11-06T13:57:35;12.60;99.90
13245;DHT22;6689;53.400;12.486;2022-11-06T14:00:10;12.60;99.90
13245;DHT22;6689;53.400;12.486;2022-11-06T14:02:44;12.60;99.90
13245;DHT22;6689;53.400;12.486;2022-11-06T14:08:03;12.50;99.90
13245;DHT22;6689;53.400;12.486;2022-11-06T14:10:33;12.50;99.90
13245;DHT22;6689;53.400;12.486;2022-11-06T14:13:00;12.50;99.90
13245;DHT22;6689;53.400;12.486;2022-11-06T14:15:29;12.40;99.90
13245;DHT22;6689;53.400;12.486;2022-11-06T14:17:58;12.40;99.90
13245;DHT22;6689;53.400;12.486;2022-11-06T14:20:26;12.40;99.90
13245;DHT22;6689;53.400;12.486;2022-11-06T14:22:54;12.40;99.90
13245;DHT22;6689;53.400;12.486;2022-11-06T14:28:07;12.30;99.90
13245;DHT22;6689;53.400;12.486;2022-11-06T14:30:39;12.30;99.90
13245;DHT22;6689;53.400;12.486;2022-11-06T14:33:11;12.30;99.90
13245;DHT22;6689;53.400;12.486;2022-11-06T14:35:58;12.20;99.90
13245;DHT22;6689;53.400;12.486;2022-11-06T14:38:37;12.20;99.90
13245;DHT22;6689;53.400;12.486;2022-11-06T14:43:57;12.10;99.90
13245;DHT22;6689;53.400;12.486;2022-11-06T14:46:26;12.00;99.90
13245;DHT22;6689;53.400;12.486;2022-11-06T14:48:54;12.00;99.90
13245;DHT22;6689;53.400;12.486;2022-11-06T14:51:31;11.90;99.90
13245;DHT22;6689;53.400;12.486;2022-11-06T14:53:58;11.90;99.90
13245;DHT22;6689;53.400;12.486;2022-11-06T14:56:27;11.80;99.90
13245;DHT22;6689;53.400;12.486;2022-11-06T14:58:55;11.80;99.90
13245;DHT22;6689;53.400;12.486;2022-11-06T15:01:24;11.80;99.90
13245;DHT22;6689;53.400;12.486;2022-11-06T15:03:53;11.70;99.90
13245;DHT22;6689;53.400;12.486;2022-11-06T15:06:33;11.60;99.90
13245;DHT22;6689;53.400;12.486;2022-11-06T15:09:03;11.60;99.90
13245;DHT22;6689;53.400;12.486;2022-11-06T15:11:50;11.60;99.90
13245;DHT22;6689;53.400;12.486;2022-11-06T15:17:03;11.40;99.90
13245;DHT22;6689;53.400;12.486;2022-11-06T15:19:32;11.40;99.90
13245;DHT22;6689;53.400;12.486;2022-11-06T15:22:04;11.30;99.90
13245;DHT22;6689;53.400;12.486;2022-11-06T15:24:33;11.30;99.90
13245;DHT22;6689;53.400;12.486;2022-11-06T15:27:03;11.30;99.90
13245;DHT22;6689;53.400;12.486;2022-11-06T15:29:31;11.20;99.90
13245;DHT22;6689;53.400;12.486;2022-11-06T15:32:01;11.10;99.90
13245;DHT22;6689;53.400;12.486;2022-11-06T15:34:29;11.10;99.90
13245;DHT22;6689;53.400;12.486;2022-11-06T15:37:01;11.10;99.90
13245;DHT22;6689;53.400;12.486;2022-11-06T15:39:32;11.00;99.90
13245;DHT22;6689;53.400;12.486;2022-11-06T15:42:05;11.00;99.90
13245;DHT22;6689;53.400;12.486;2022-11-06T15:44:35;10.90;99.90
13245;DHT22;6689;53.400;12.486;2022-11-06T15:47:03;10.80;99.90
13245;DHT22;6689;53.400;12.486;2022-11-06T15:49:30;10.70;99.90
13245;DHT22;6689;53.400;12.486;2022-11-06T15:51:59;10.80;99.90
13245;DHT22;6689;53.400;12.486;2022-11-06T15:54:33;10.70;99.90
13245;DHT22;6689;53.400;12.486;2022-11-06T15:57:00;10.70;99.90
13245;DHT22;6689;53.400;12.486;2022-11-06T15:59:28;10.70;99.90
13245;DHT22;6689;53.400;12.486;2022-11-06T16:01:55;10.70;99.90
13245;DHT22;6689;53.400;12.486;2022-11-06T16:04:22;10.70;99.90
13245;DHT22;6689;53.400;12.486;2022-11-06T16:06:50;10.70;99.90
13245;DHT22;6689;53.400;12.486;2022-11-06T16:09:20;10.60;99.90
13245;DHT22;6689;53.400;12.486;2022-11-06T16:11:49;10.70;99.90
13245;DHT22;6689;53.400;12.486;2022-11-06T16:14:16;10.60;99.90
13245;DHT22;6689;53.400;12.486;2022-11-06T16:16:44;10.60;99.90
13245;DHT22;6689;53.400;12.486;2022-11-06T16:21:57;10.60;99.90